createdAt,value
2018-10-09T00:00:44.397Z,11.10
2018-10-09T00:03:11.814Z,11.10
2018-10-09T00:05:39.292Z,11.10
2018-10-09T00:08:06.696Z,11.10
2018-10-09T00:10:34.182Z,11.10
2018-10-09T00:13:01.556Z,11.00
2018-10-09T00:15:28.902Z,11.20
2018-10-09T00:17:56.398Z,11.10
2018-10-09T00:20:24.626Z,11.00
2018-10-09T00:22:53.913Z,11.00
2018-10-09T00:25:21.408Z,11.00
2018-10-09T00:27:51.312Z,10.80
2018-10-09T00:30:18.678Z,10.60
2018-10-09T00:32:46.242Z,10.60
2018-10-09T00:35:14.183Z,10.60
2018-10-09T00:37:41.574Z,10.50
2018-10-09T00:40:09.102Z,10.50
2018-10-09T00:42:36.522Z,10.50
2018-10-09T00:45:04.318Z,10.40
2018-10-09T00:47:31.885Z,10.50
2018-10-09T00:49:59.294Z,10.50
2018-10-09T00:52:26.749Z,10.40
2018-10-09T00:54:54.165Z,10.40
2018-10-09T00:57:21.489Z,10.50
2018-10-09T00:59:48.888Z,10.50
2018-10-09T01:02:16.461Z,10.50
2018-10-09T01:04:43.839Z,10.40
2018-10-09T01:07:11.438Z,10.40
2018-10-09T01:09:38.778Z,10.30
2018-10-09T01:12:06.321Z,10.40
2018-10-09T01:14:33.938Z,10.50
2018-10-09T01:17:01.474Z,10.40
2018-10-09T01:19:29.080Z,10.40
2018-10-09T01:21:56.506Z,10.30
2018-10-09T01:24:23.864Z,10.30
2018-10-09T01:26:51.226Z,10.30
2018-10-09T01:29:18.951Z,10.20
2018-10-09T01:31:47.618Z,10.10
2018-10-09T01:34:15.264Z,10.00
2018-10-09T01:36:43.583Z,10.10
2018-10-09T01:39:10.988Z,10.30
2018-10-09T01:41:38.365Z,10.30
2018-10-09T01:44:06.257Z,10.20
2018-10-09T01:46:33.985Z,10.20
2018-10-09T01:49:01.341Z,10.20
2018-10-09T01:51:28.805Z,10.10
2018-10-09T01:53:56.225Z,10.10
2018-10-09T01:56:23.733Z,10.10
2018-10-09T01:58:51.141Z,10.00
2018-10-09T02:01:18.549Z,10.00
2018-10-09T02:03:45.971Z,10.00
2018-10-09T02:06:13.489Z,10.00
2018-10-09T02:08:40.961Z,9.90
2018-10-09T02:11:08.415Z,9.90
2018-10-09T02:13:35.879Z,9.80
2018-10-09T02:16:03.709Z,9.90
2018-10-09T02:18:31.095Z,10.00
2018-10-09T02:20:58.414Z,9.90
2018-10-09T02:23:25.801Z,10.00
2018-10-09T02:25:53.221Z,9.80
2018-10-09T02:28:20.609Z,9.70
2018-10-09T02:30:48.020Z,9.70
2018-10-09T02:33:15.427Z,9.60
2018-10-09T02:35:42.794Z,9.70
2018-10-09T02:38:10.208Z,9.80
2018-10-09T02:40:37.641Z,9.90
2018-10-09T02:43:05.175Z,9.90
2018-10-09T02:45:32.569Z,9.90
2018-10-09T02:47:59.907Z,9.70
2018-10-09T02:50:27.519Z,9.80
2018-10-09T02:52:54.882Z,9.80
2018-10-09T02:55:22.292Z,9.90
2018-10-09T02:57:49.755Z,9.90
2018-10-09T03:00:17.198Z,9.80
2018-10-09T03:02:44.627Z,9.70
2018-10-09T03:05:12.076Z,9.60
2018-10-09T03:07:39.534Z,9.50
2018-10-09T03:10:07.432Z,9.50
2018-10-09T03:12:34.936Z,9.40
2018-10-09T03:15:02.341Z,9.40
2018-10-09T03:17:29.734Z,9.30
2018-10-09T03:19:57.190Z,9.20
2018-10-09T03:22:24.542Z,8.90
2018-10-09T03:24:51.898Z,8.90
2018-10-09T03:27:19.244Z,8.80
2018-10-09T03:29:46.545Z,8.80
2018-10-09T03:32:13.883Z,8.80
2018-10-09T03:34:41.338Z,8.80
2018-10-09T03:37:08.814Z,8.70
2018-10-09T03:39:36.257Z,8.90
2018-10-09T03:42:04.126Z,9.00
2018-10-09T03:44:31.520Z,9.10
2018-10-09T03:46:58.919Z,9.20
2018-10-09T03:49:26.419Z,9.30
2018-10-09T03:51:53.881Z,9.40
2018-10-09T03:54:22.204Z,9.30
2018-10-09T03:56:50.618Z,9.20
2018-10-09T03:59:18.077Z,9.40
2018-10-09T04:01:45.483Z,9.30
2018-10-09T04:04:12.941Z,9.30
2018-10-09T04:06:40.462Z,9.20
2018-10-09T04:09:10.707Z,9.20
2018-10-09T04:11:38.077Z,9.00
2018-10-09T04:14:05.755Z,9.10
2018-10-09T04:16:33.205Z,9.30
2018-10-09T04:19:00.569Z,9.30
2018-10-09T04:21:27.935Z,9.30
2018-10-09T04:23:55.351Z,9.40
2018-10-09T04:26:23.329Z,9.30
2018-10-09T04:28:52.029Z,9.30
2018-10-09T04:31:19.600Z,9.40
2018-10-09T04:33:47.053Z,9.30
2018-10-09T04:36:17.150Z,9.10
2018-10-09T04:38:44.487Z,8.90
2018-10-09T04:41:11.793Z,8.70
2018-10-09T04:43:39.276Z,8.60
2018-10-09T04:46:06.571Z,8.60
2018-10-09T04:48:34.017Z,8.60
2018-10-09T04:51:01.436Z,8.50
2018-10-09T04:53:28.937Z,8.60
2018-10-09T04:55:56.351Z,8.60
2018-10-09T04:58:23.743Z,8.60
2018-10-09T05:00:51.220Z,8.60
2018-10-09T05:03:18.683Z,8.50
2018-10-09T05:05:46.133Z,8.50
2018-10-09T05:08:13.656Z,8.50
2018-10-09T05:10:41.129Z,8.50
2018-10-09T05:13:08.455Z,8.50
2018-10-09T05:15:35.879Z,8.50
2018-10-09T05:18:03.256Z,8.50
2018-10-09T05:20:30.813Z,8.40
2018-10-09T05:22:58.178Z,8.40
2018-10-09T05:25:25.608Z,8.40
2018-10-09T05:27:53.121Z,8.50
2018-10-09T05:30:20.507Z,8.40
2018-10-09T05:32:48.054Z,8.30
2018-10-09T05:35:15.544Z,8.40
2018-10-09T05:37:42.987Z,8.40
2018-10-09T05:40:11.174Z,8.40
2018-10-09T05:42:38.796Z,8.40
2018-10-09T05:45:06.323Z,8.50
2018-10-09T05:47:33.762Z,8.40
2018-10-09T05:50:01.282Z,8.40
2018-10-09T05:52:28.746Z,8.30
2018-10-09T05:54:56.202Z,8.30
2018-10-09T05:57:23.630Z,8.20
2018-10-09T05:59:51.011Z,8.30
2018-10-09T06:02:18.405Z,8.40
2018-10-09T06:04:45.806Z,8.50
2018-10-09T06:07:13.262Z,8.60
2018-10-09T06:09:40.616Z,8.70
2018-10-09T06:12:08.077Z,8.80
2018-10-09T06:14:35.423Z,8.90
2018-10-09T06:17:05.169Z,8.80
2018-10-09T06:19:32.687Z,8.80
2018-10-09T06:22:00.041Z,8.80
2018-10-09T06:24:27.560Z,8.80
2018-10-09T06:26:54.928Z,8.80
2018-10-09T06:29:22.378Z,8.90
2018-10-09T06:31:49.830Z,8.90
2018-10-09T06:34:17.331Z,8.90
2018-10-09T06:36:44.750Z,9.00
2018-10-09T06:39:12.192Z,9.10
2018-10-09T06:41:40.818Z,9.10
2018-10-09T06:44:08.210Z,9.20
2018-10-09T06:46:35.718Z,9.20
2018-10-09T06:49:03.156Z,9.30
2018-10-09T06:51:30.664Z,9.40
2018-10-09T06:53:58.418Z,9.40
2018-10-09T06:56:25.634Z,9.40
2018-10-09T06:58:53.061Z,9.40
2018-10-09T07:01:20.511Z,9.40
2018-10-09T07:03:47.933Z,9.60
2018-10-09T07:06:15.418Z,9.80
2018-10-09T07:08:42.890Z,10.00
2018-10-09T07:11:10.354Z,10.20
2018-10-09T07:13:37.734Z,10.40
2018-10-09T07:16:05.047Z,10.50
2018-10-09T07:18:32.514Z,10.80
2018-10-09T07:20:59.908Z,10.90
2018-10-09T07:23:27.267Z,11.00
2018-10-09T07:25:54.647Z,11.30
2018-10-09T07:28:22.054Z,11.40
2018-10-09T07:30:49.436Z,11.50
2018-10-09T07:33:17.024Z,11.50
2018-10-09T07:35:44.444Z,11.50
2018-10-09T07:38:11.921Z,11.50
2018-10-09T07:40:39.295Z,11.30
2018-10-09T07:43:06.816Z,11.20
2018-10-09T07:45:34.189Z,11.30
2018-10-09T07:48:01.781Z,11.70
2018-10-09T07:50:29.241Z,12.10
2018-10-09T07:52:56.664Z,12.30
2018-10-09T07:55:24.146Z,12.20
2018-10-09T07:57:51.633Z,12.30
2018-10-09T08:00:19.012Z,12.40
2018-10-09T08:02:46.426Z,12.60
2018-10-09T08:05:13.882Z,12.90
2018-10-09T08:07:41.269Z,12.90
2018-10-09T08:10:08.737Z,13.00
2018-10-09T08:12:36.189Z,13.30
2018-10-09T08:15:03.739Z,13.60
2018-10-09T08:17:31.214Z,13.70
2018-10-09T08:19:58.718Z,13.20
2018-10-09T08:22:26.133Z,13.20
2018-10-09T08:24:53.436Z,13.60
2018-10-09T08:27:20.879Z,13.70
2018-10-09T08:29:48.298Z,13.90
2018-10-09T08:32:19.518Z,13.50
2018-10-09T08:34:46.945Z,13.80
2018-10-09T08:37:14.439Z,14.00
2018-10-09T08:39:42.045Z,14.10
2018-10-09T08:42:09.518Z,14.40
2018-10-09T08:44:36.837Z,14.70
2018-10-09T08:47:04.459Z,14.90
2018-10-09T08:49:31.887Z,15.20
2018-10-09T08:51:59.399Z,15.50
2018-10-09T08:54:26.779Z,15.80
2018-10-09T08:56:54.218Z,16.10
2018-10-09T08:59:21.693Z,16.30
2018-10-09T09:01:49.125Z,16.20
2018-10-09T09:04:16.554Z,16.40
2018-10-09T09:06:44.079Z,16.70
2018-10-09T09:09:11.967Z,16.90
2018-10-09T09:11:39.372Z,16.60
2018-10-09T09:14:06.874Z,16.80
2018-10-09T09:16:34.437Z,16.70
2018-10-09T09:19:01.960Z,17.10
2018-10-09T09:21:29.981Z,17.50
2018-10-09T09:23:57.356Z,17.90
2018-10-09T09:26:24.789Z,18.00
2018-10-09T09:28:52.183Z,18.40
2018-10-09T09:31:19.628Z,18.80
2018-10-09T09:33:50.416Z,18.30
2018-10-09T09:36:17.837Z,17.90
2018-10-09T09:38:45.563Z,17.80
2018-10-09T09:41:12.975Z,17.90
2018-10-09T09:43:40.366Z,18.20
2018-10-09T09:46:07.913Z,18.50
2018-10-09T09:48:35.609Z,18.60
2018-10-09T09:51:04.911Z,19.20
2018-10-09T09:53:32.309Z,18.80
2018-10-09T09:55:59.827Z,19.10
2018-10-09T09:58:27.408Z,19.50
2018-10-09T10:00:57.587Z,19.30
2018-10-09T10:03:25.882Z,19.20
2018-10-09T10:05:53.302Z,19.10
2018-10-09T10:08:20.788Z,19.70
2018-10-09T10:10:48.226Z,20.20
2018-10-09T10:13:15.658Z,20.00
2018-10-09T10:15:43.211Z,20.20
2018-10-09T10:18:10.539Z,20.40
2018-10-09T10:20:37.942Z,20.50
2018-10-09T10:23:05.494Z,20.10
2018-10-09T10:25:32.985Z,20.20
2018-10-09T10:28:00.352Z,20.30
2018-10-09T10:30:27.839Z,20.40
2018-10-09T10:32:55.306Z,20.60
2018-10-09T10:35:22.708Z,20.60
2018-10-09T10:37:50.214Z,20.50
2018-10-09T10:40:17.646Z,20.40
2018-10-09T10:42:45.104Z,20.60
2018-10-09T10:45:12.517Z,20.80
2018-10-09T10:47:39.974Z,21.20
2018-10-09T10:50:07.530Z,21.30
2018-10-09T10:52:34.950Z,21.20
2018-10-09T10:55:02.517Z,21.30
2018-10-09T10:57:29.802Z,21.30
2018-10-09T10:59:57.162Z,21.60
2018-10-09T11:02:24.556Z,22.00
2018-10-09T11:04:52.007Z,22.20
2018-10-09T11:07:19.474Z,22.40
2018-10-09T11:09:47.037Z,22.80
2018-10-09T11:12:14.545Z,22.50
2018-10-09T11:14:41.942Z,22.60
2018-10-09T11:17:09.394Z,22.50
2018-10-09T11:19:36.877Z,22.40
2018-10-09T11:22:04.457Z,22.20
2018-10-09T11:24:31.873Z,22.40
2018-10-09T11:26:59.399Z,22.70
2018-10-09T11:29:27.169Z,23.00
2018-10-09T11:31:55.021Z,23.10
2018-10-09T11:34:22.777Z,23.00
2018-10-09T11:36:50.554Z,23.50
2018-10-09T11:39:17.875Z,22.90
2018-10-09T11:41:45.305Z,22.80
2018-10-09T11:44:12.707Z,23.30
2018-10-09T11:46:43.453Z,23.40
2018-10-09T11:49:11.375Z,23.00
2018-10-09T11:51:42.555Z,23.00
2018-10-09T11:54:10.758Z,23.40
2018-10-09T11:56:38.317Z,23.00
2018-10-09T11:59:10.064Z,22.90
2018-10-09T12:01:37.983Z,23.20
2018-10-09T12:04:06.178Z,23.40
2018-10-09T12:06:34.295Z,22.80
2018-10-09T12:09:03.586Z,23.10
2018-10-09T12:11:31.198Z,23.20
2018-10-09T12:14:00.241Z,23.40
2018-10-09T12:16:28.448Z,23.60
2018-10-09T12:18:56.615Z,23.30
2018-10-09T12:21:24.596Z,23.00
2018-10-09T12:23:52.807Z,23.30
2018-10-09T12:26:20.884Z,23.20
2018-10-09T12:28:49.102Z,23.50
2018-10-09T12:31:17.217Z,23.30
2018-10-09T12:33:45.150Z,22.90
2018-10-09T12:36:13.411Z,23.40
2018-10-09T12:38:41.306Z,23.50
2018-10-09T12:41:08.978Z,23.90
2018-10-09T12:43:39.769Z,24.20
2018-10-09T12:46:07.775Z,23.80
2018-10-09T12:48:35.946Z,23.60
2018-10-09T12:51:03.670Z,23.90
2018-10-09T12:53:31.772Z,24.00
2018-10-09T12:55:59.842Z,23.90
2018-10-09T12:58:27.530Z,24.30
2018-10-09T13:00:56.310Z,24.40
2018-10-09T13:03:24.036Z,24.20
2018-10-09T13:05:51.926Z,24.10
2018-10-09T13:08:19.426Z,23.90
2018-10-09T13:10:47.212Z,23.80
2018-10-09T13:13:14.591Z,24.10
2018-10-09T13:15:41.948Z,24.30
2018-10-09T13:18:09.297Z,24.50
2018-10-09T13:20:36.751Z,24.60
2018-10-09T13:23:04.191Z,24.20
2018-10-09T13:25:31.665Z,24.20
2018-10-09T13:27:59.051Z,23.90
2018-10-09T13:30:26.549Z,23.60
2018-10-09T13:32:53.911Z,23.20
2018-10-09T13:35:21.347Z,23.50
2018-10-09T13:37:49.487Z,23.80
2018-10-09T13:40:16.911Z,23.90
2018-10-09T13:42:44.366Z,24.20
2018-10-09T13:45:11.815Z,24.50
2018-10-09T13:47:39.408Z,24.60
2018-10-09T13:50:06.703Z,24.40
2018-10-09T13:52:34.058Z,24.50
2018-10-09T13:55:01.896Z,24.60
2018-10-09T13:57:29.541Z,24.60
2018-10-09T13:59:56.998Z,24.70
2018-10-09T14:02:24.410Z,24.80
2018-10-09T14:04:51.836Z,25.00
2018-10-09T14:07:19.389Z,25.50
2018-10-09T14:09:46.770Z,25.80
2018-10-09T14:12:14.235Z,25.90
2018-10-09T14:14:41.613Z,25.70
2018-10-09T14:17:08.979Z,25.90
2018-10-09T14:19:36.419Z,26.80
2018-10-09T14:22:03.810Z,27.40
2018-10-09T14:24:31.310Z,27.40
2018-10-09T14:26:58.908Z,27.20
2018-10-09T14:29:26.589Z,26.40
2018-10-09T14:31:55.016Z,26.10
2018-10-09T14:34:22.468Z,25.70
2018-10-09T14:36:49.912Z,25.20
2018-10-09T14:39:17.395Z,25.20
2018-10-09T14:41:44.902Z,24.90
2018-10-09T14:44:12.393Z,24.80
2018-10-09T14:46:39.829Z,24.70
2018-10-09T14:49:07.293Z,24.80
2018-10-09T14:51:34.715Z,24.70
2018-10-09T14:54:02.162Z,24.30
2018-10-09T14:56:29.621Z,23.90
2018-10-09T14:58:56.990Z,23.70
2018-10-09T15:01:24.387Z,23.80
2018-10-09T15:04:05.984Z,23.70
2018-10-09T15:07:09.940Z,23.90
2018-10-09T15:10:09.057Z,24.00
2018-10-09T15:15:51.968Z,24.50
2018-10-09T15:18:19.338Z,24.60
2018-10-09T15:20:46.814Z,24.60
2018-10-09T15:23:14.163Z,24.40
2018-10-09T15:25:41.686Z,24.10
2018-10-09T15:28:09.136Z,23.40
2018-10-09T15:30:36.554Z,22.90
2018-10-09T15:33:03.996Z,22.70
2018-10-09T15:35:31.471Z,22.40
2018-10-09T15:37:58.835Z,22.30
2018-10-09T15:40:26.263Z,22.10
2018-10-09T15:42:53.631Z,22.00
2018-10-09T15:45:21.097Z,21.90
2018-10-09T15:47:48.420Z,21.80
2018-10-09T15:50:16.037Z,21.60
2018-10-09T15:52:43.508Z,21.60
2018-10-09T15:55:10.974Z,21.40
2018-10-09T15:57:38.426Z,21.30
2018-10-09T16:00:05.973Z,21.10
2018-10-09T16:02:33.405Z,21.00
2018-10-09T16:05:00.748Z,21.00
2018-10-09T16:07:28.209Z,20.90
2018-10-09T16:09:55.558Z,20.80
2018-10-09T16:12:23.349Z,20.70
2018-10-09T16:14:50.850Z,20.70
2018-10-09T16:17:18.430Z,20.70
2018-10-09T16:20:04.479Z,20.50
2018-10-09T16:22:31.848Z,20.40
2018-10-09T16:24:59.302Z,20.20
2018-10-09T16:27:26.750Z,20.10
2018-10-09T16:29:54.138Z,20.10
2018-10-09T16:32:21.720Z,20.00
2018-10-09T16:34:49.039Z,19.90
2018-10-09T16:37:16.523Z,19.80
2018-10-09T16:39:44.017Z,19.70
2018-10-09T16:42:11.508Z,19.50
2018-10-09T16:44:38.830Z,19.40
2018-10-09T16:47:06.578Z,19.30
2018-10-09T16:49:35.714Z,19.20
2018-10-09T16:52:03.209Z,19.10
2018-10-09T16:54:30.745Z,18.90
2018-10-09T16:56:58.218Z,18.80
2018-10-09T16:59:26.141Z,18.70
2018-10-09T17:01:53.574Z,18.60
2018-10-09T17:04:20.996Z,18.50
2018-10-09T17:06:48.449Z,18.40
2018-10-09T17:09:15.861Z,18.40
2018-10-09T17:11:43.285Z,18.30
2018-10-09T17:14:11.346Z,18.10
2018-10-09T17:16:38.675Z,18.10
2018-10-09T17:19:06.201Z,18.00
2018-10-09T17:21:33.657Z,17.90
2018-10-09T17:24:01.113Z,17.80
2018-10-09T17:26:28.531Z,17.70
2018-10-09T17:28:55.910Z,17.70
2018-10-09T17:31:23.460Z,17.60
2018-10-09T17:33:50.898Z,17.50
2018-10-09T17:36:18.410Z,17.50
2018-10-09T17:38:45.770Z,17.30
2018-10-09T17:41:13.255Z,17.20
2018-10-09T17:43:40.685Z,17.10
2018-10-09T17:46:08.151Z,17.00
2018-10-09T17:48:35.641Z,17.00
2018-10-09T17:51:09.958Z,16.90
2018-10-09T17:53:37.524Z,16.80
2018-10-09T17:56:05.390Z,16.70
2018-10-09T17:58:33.079Z,16.60
2018-10-09T18:01:00.539Z,16.50
2018-10-09T18:03:27.977Z,16.40
2018-10-09T18:05:55.378Z,16.30
2018-10-09T18:08:22.739Z,16.20
2018-10-09T18:10:50.183Z,16.20
2018-10-09T18:13:17.680Z,16.20
2018-10-09T18:15:47.035Z,16.10
2018-10-09T18:18:14.521Z,16.10
2018-10-09T18:20:42.042Z,16.10
2018-10-09T18:23:09.551Z,16.00
2018-10-09T18:25:36.944Z,16.00
2018-10-09T18:28:04.652Z,15.90
2018-10-09T18:30:32.169Z,15.80
2018-10-09T18:33:00.955Z,15.50
2018-10-09T18:35:28.054Z,15.60
2018-10-09T18:37:55.466Z,15.50
2018-10-09T18:40:22.890Z,15.40
2018-10-09T18:42:50.292Z,15.30
2018-10-09T18:45:17.872Z,15.30
2018-10-09T18:47:46.006Z,15.30
2018-10-09T18:50:13.600Z,15.30
2018-10-09T18:52:41.514Z,15.30
2018-10-09T18:55:11.297Z,15.30
2018-10-09T18:57:38.730Z,15.20
2018-10-09T19:00:06.931Z,15.10
2018-10-09T19:02:34.435Z,15.10
2018-10-09T19:05:01.915Z,15.20
2018-10-09T19:07:29.387Z,15.00
2018-10-09T19:09:56.780Z,15.00
2018-10-09T19:12:24.248Z,14.90
2018-10-09T19:14:51.734Z,14.70
2018-10-09T19:17:19.611Z,14.70
2018-10-09T19:19:47.069Z,14.70
2018-10-09T19:22:14.474Z,14.50
2018-10-09T19:24:41.981Z,14.50
2018-10-09T19:27:09.489Z,14.50
2018-10-09T19:29:37.029Z,14.50
2018-10-09T19:32:04.517Z,14.40
2018-10-09T19:34:31.943Z,14.30
2018-10-09T19:36:59.519Z,14.20
2018-10-09T19:39:27.074Z,14.10
2018-10-09T19:41:54.573Z,14.10
2018-10-09T19:44:22.113Z,14.10
2018-10-09T19:46:49.500Z,14.20
2018-10-09T19:49:16.959Z,14.10
2018-10-09T19:51:44.416Z,14.00
2018-10-09T19:54:12.004Z,14.10
2018-10-09T19:56:39.433Z,14.00
2018-10-09T19:59:06.928Z,13.90
2018-10-09T20:01:34.415Z,13.80
2018-10-09T20:04:01.772Z,13.70
2018-10-09T20:06:29.236Z,13.60
2018-10-09T20:08:56.693Z,13.60
2018-10-09T20:11:24.186Z,13.50
2018-10-09T20:13:51.571Z,13.50
2018-10-09T20:16:19.049Z,13.40
2018-10-09T20:18:46.605Z,13.30
2018-10-09T20:21:14.057Z,13.20
2018-10-09T20:23:41.786Z,13.30
2018-10-09T20:26:09.139Z,13.40
2018-10-09T20:28:36.667Z,13.30
2018-10-09T20:31:04.083Z,13.20
2018-10-09T20:33:31.554Z,13.20
2018-10-09T20:35:58.979Z,13.10
2018-10-09T20:38:26.448Z,13.00
2018-10-09T20:40:53.939Z,13.00
2018-10-09T20:43:21.479Z,13.00
2018-10-09T20:45:49.209Z,13.10
2018-10-09T20:48:16.683Z,13.00
2018-10-09T20:50:45.247Z,12.90
2018-10-09T20:53:12.655Z,12.80
2018-10-09T20:55:40.081Z,12.80
2018-10-09T20:58:07.559Z,12.80
2018-10-09T21:00:35.104Z,12.70
2018-10-09T21:03:02.510Z,12.60
2018-10-09T21:05:30.185Z,12.70
2018-10-09T21:07:57.627Z,12.70
2018-10-09T21:10:24.977Z,12.70
2018-10-09T21:12:52.387Z,12.70
2018-10-09T21:15:19.855Z,12.70
2018-10-09T21:17:47.453Z,12.70
2018-10-09T21:20:14.753Z,12.60
2018-10-09T21:22:42.206Z,12.60
2018-10-09T21:25:09.583Z,12.60
2018-10-09T21:27:37.035Z,12.50
2018-10-09T21:30:04.483Z,12.50
2018-10-09T21:32:31.966Z,12.40
2018-10-09T21:34:59.439Z,12.40
2018-10-09T21:37:26.938Z,12.40
2018-10-09T21:39:54.327Z,12.30
2018-10-09T21:42:21.778Z,12.30
2018-10-09T21:44:49.168Z,12.20
2018-10-09T21:47:16.626Z,12.20
2018-10-09T21:49:44.090Z,12.20
2018-10-09T21:52:11.666Z,12.10
2018-10-09T21:54:39.052Z,12.00
2018-10-09T21:57:06.542Z,12.10
2018-10-09T21:59:33.987Z,12.00
2018-10-09T22:02:01.342Z,12.00
2018-10-09T22:04:28.720Z,11.90
2018-10-09T22:06:56.201Z,11.90
2018-10-09T22:09:23.647Z,11.90
2018-10-09T22:11:51.149Z,11.80
2018-10-09T22:14:18.507Z,11.90
2018-10-09T22:16:47.083Z,11.80
2018-10-09T22:19:15.209Z,11.80
2018-10-09T22:21:42.925Z,11.80
2018-10-09T22:24:10.280Z,11.70
2018-10-09T22:26:39.551Z,11.80
2018-10-09T22:29:07.246Z,11.60
2018-10-09T22:31:35.410Z,11.50
2018-10-09T22:34:03.885Z,11.50
2018-10-09T22:36:31.430Z,11.40
2018-10-09T22:38:59.059Z,11.40
2018-10-09T22:41:26.407Z,11.40
2018-10-09T22:43:53.876Z,11.30
2018-10-09T22:46:21.196Z,11.30
2018-10-09T22:48:48.508Z,11.30
2018-10-09T22:51:15.858Z,11.20
2018-10-09T22:53:43.225Z,11.20
2018-10-09T22:56:10.574Z,11.20
2018-10-09T22:58:38.728Z,11.40
2018-10-09T23:01:06.964Z,11.40
2018-10-09T23:03:34.744Z,11.30
2018-10-09T23:06:02.575Z,11.00
2018-10-09T23:08:30.840Z,11.10
2018-10-09T23:10:58.466Z,11.10
2018-10-09T23:13:25.915Z,11.00
2018-10-09T23:15:53.345Z,11.00
2018-10-09T23:18:20.826Z,10.90
2018-10-09T23:20:48.338Z,10.90
2018-10-09T23:23:15.737Z,10.80
2018-10-09T23:25:43.244Z,10.90
2018-10-09T23:28:10.554Z,10.80
2018-10-09T23:30:37.937Z,10.70
2018-10-09T23:33:05.449Z,10.60
2018-10-09T23:35:32.857Z,10.60
2018-10-09T23:38:00.195Z,10.50
2018-10-09T23:40:27.649Z,10.50
2018-10-09T23:42:55.114Z,10.50
2018-10-09T23:45:22.461Z,10.50
2018-10-09T23:47:54.442Z,10.50
2018-10-09T23:50:21.866Z,10.40
2018-10-09T23:52:49.323Z,10.40
2018-10-09T23:55:16.743Z,10.40
2018-10-09T23:57:44.080Z,10.40
